Time;durP1;ratioP1;P1;durP2;ratioP2;P2;SDS_P1;SDS_P2;PMS_P1;PMS_P2;Temp;Humidity;BMP_temperature;BMP_pressure;BME280_temperature;BME280_humidity;BME280_pressure;Samples;Min_cycle;Max_cycle;Signal;HPM_P1;HPM_P2
2021/10/18 00:00:14;;;;;;;;;28.25;28.25;;;;;;;;5078674;27;46062;-76
2021/10/18 00:02:39;;;;;;;;;27.00;26.25;;;;;;;;5081150;27;45246;-73
2021/10/18 00:05:05;;;;;;;;;28.25;26.50;;;;;;;;5079856;27;45260;-76
2021/10/18 00:07:30;;;;;;;;;30.50;27.00;;;;;;;;5079261;27;47139;-75
2021/10/18 00:09:55;;;;;;;;;31.00;26.75;;;;;;;;5076888;27;45600;-75
2021/10/18 00:12:21;;;;;;;;;33.25;30.75;;;;;;;;5076848;27;45252;-74
2021/10/18 00:14:46;;;;;;;;;32.00;30.75;;;;;;;;5080091;27;45316;-76
2021/10/18 00:17:11;;;;;;;;;28.25;27.50;;;;;;;;5078870;27;46188;-74
2021/10/18 00:19:36;;;;;;;;;30.00;28.25;;;;;;;;5079739;27;45613;-74
2021/10/18 00:22:02;;;;;;;;;31.50;29.25;;;;;;;;5079255;27;45464;-75
2021/10/18 00:24:27;;;;;;;;;31.00;26.75;;;;;;;;5075349;27;45284;-74
2021/10/18 00:26:52;;;;;;;;;32.00;30.50;;;;;;;;5081518;27;45898;-74
2021/10/18 00:29:18;;;;;;;;;31.50;29.75;;;;;;;;5079394;27;45616;-74
2021/10/18 00:31:43;;;;;;;;;35.50;32.50;;;;;;;;5079008;27;45402;-74
2021/10/18 00:34:08;;;;;;;;;32.75;27.25;;;;;;;;5079354;27;45459;-74
2021/10/18 00:36:33;;;;;;;;;40.00;33.25;;;;;;;;5074770;27;45500;-74
2021/10/18 00:38:59;;;;;;;;;32.00;30.75;;;;;;;;5081484;27;45413;-74
2021/10/18 00:41:24;;;;;;;;;36.50;30.25;;;;;;;;5079246;27;45457;-75
2021/10/18 00:43:51;;;;;;;;;32.00;31.25;;;;;;;;5079398;27;45334;-74
2021/10/18 00:46:24;;;;;;;;;31.50;30.75;;;;;;;;5078659;27;46356;-75
2021/10/18 00:48:49;;;;;;;;;32.75;30.00;;;;;;;;5075378;27;45455;-74
2021/10/18 00:51:16;;;;;;;;;28.50;26.25;;;;;;;;5077671;27;45341;-75
2021/10/18 00:53:41;;;;;;;;;35.25;32.25;;;;;;;;5078776;27;45324;-74
2021/10/18 00:56:07;;;;;;;;;39.00;32.00;;;;;;;;5077337;27;46032;-75
2021/10/18 00:58:32;;;;;;;;;36.50;32.75;;;;;;;;5078949;27;45419;-75
2021/10/18 01:00:58;;;;;;;;;35.50;32.50;;;;;;;;5077380;27;45933;-75
2021/10/18 01:03:24;;;;;;;;;31.00;30.00;;;;;;;;5075608;27;45537;-75
2021/10/18 01:05:49;;;;;;;;;36.00;30.75;;;;;;;;5080648;27;47488;-75
2021/10/18 01:08:15;;;;;;;;;31.25;29.50;;;;;;;;5078689;27;45248;-74
2021/10/18 01:10:40;;;;;;;;;32.75;28.00;;;;;;;;5078666;27;45225;-74
2021/10/18 01:13:05;;;;;;;;;30.50;28.50;;;;;;;;5079046;27;45350;-75
2021/10/18 01:15:31;;;;;;;;;41.25;33.25;;;;;;;;5073842;28;48416;-75
2021/10/18 01:17:56;;;;;;;;;38.25;31.25;;;;;;;;5080599;27;45450;-74
2021/10/18 01:20:28;;;;;;;;;29.75;28.00;;;;;;;;5078812;27;45339;-75
2021/10/18 01:22:53;;;;;;;;;35.75;32.25;;;;;;;;5078384;27;45521;-74
2021/10/18 01:25:18;;;;;;;;;25.25;25.25;;;;;;;;5060058;27;46199;-74
2021/10/18 01:27:44;;;;;;;;;34.50;32.75;;;;;;;;5074084;27;45660;-74
2021/10/18 01:30:09;;;;;;;;;33.25;27.75;;;;;;;;5077927;27;45410;-75
2021/10/18 01:32:34;;;;;;;;;34.25;30.75;;;;;;;;5077944;27;45348;-75
2021/10/18 01:35:00;;;;;;;;;34.50;31.50;;;;;;;;5078262;27;46152;-74
2021/10/18 01:37:25;;;;;;;;;36.25;30.75;;;;;;;;5078282;27;45154;-74
2021/10/18 01:39:51;;;;;;;;;32.50;28.50;;;;;;;;5076521;27;45316;-74
2021/10/18 01:42:16;;;;;;;;;33.75;28.75;;;;;;;;5076320;27;45346;-75
2021/10/18 01:44:41;;;;;;;;;35.50;31.25;;;;;;;;5079547;27;46100;-74
2021/10/18 01:47:06;;;;;;;;;35.25;31.25;;;;;;;;5078031;27;45239;-75
2021/10/18 01:49:31;;;;;;;;;42.75;31.75;;;;;;;;5077565;27;45370;-75
2021/10/18 01:51:57;;;;;;;;;32.50;31.00;;;;;;;;5075584;27;45435;-75
2021/10/18 01:54:22;;;;;;;;;35.50;33.50;;;;;;;;5074723;27;46004;-75
2021/10/18 01:56:47;;;;;;;;;33.00;29.00;;;;;;;;5080242;27;45369;-73
2021/10/18 01:59:12;;;;;;;;;39.50;34.00;;;;;;;;5077894;27;45430;-75
2021/10/18 02:01:37;;;;;;;;;37.25;32.50;;;;;;;;5078219;27;45371;-75
2021/10/18 02:04:03;;;;;;;;;31.75;31.25;;;;;;;;5077471;27;47312;-74
2021/10/18 02:06:28;;;;;;;;;30.00;29.75;;;;;;;;5073165;27;45370;-74
2021/10/18 02:08:54;;;;;;;;;29.50;27.25;;;;;;;;5079392;27;45519;-74
2021/10/18 02:11:19;;;;;;;;;35.25;32.25;;;;;;;;5076463;27;45339;-74
2021/10/18 02:13:44;;;;;;;;;35.00;31.25;;;;;;;;5077202;27;47267;-74
2021/10/18 02:16:09;;;;;;;;;31.00;29.75;;;;;;;;5059495;27;45477;-74
2021/10/18 02:18:34;;;;;;;;;30.75;29.00;;;;;;;;5073410;27;45380;-74
2021/10/18 02:21:01;;;;;;;;;34.50;32.00;;;;;;;;5079902;27;45409;-74
2021/10/18 02:23:30;;;;;;;;;36.25;30.75;;;;;;;;5077521;27;46260;-74
2021/10/18 02:25:55;;;;;;;;;29.75;26.25;;;;;;;;5077738;27;45584;-74
2021/10/18 02:28:21;;;;;;;;;30.50;26.50;;;;;;;;5077354;27;45380;-74
2021/10/18 02:30:47;;;;;;;;;33.25;31.50;;;;;;;;5074870;27;45404;-74
2021/10/18 02:33:12;;;;;;;;;34.50;31.00;;;;;;;;5076299;27;45641;-73
2021/10/18 02:35:38;;;;;;;;;31.50;29.75;;;;;;;;5078596;27;45413;-73
2021/10/18 02:38:03;;;;;;;;;33.25;31.25;;;;;;;;5077813;27;45296;-75
2021/10/18 02:40:28;;;;;;;;;31.00;27.00;;;;;;;;5081035;27;45462;-76
2021/10/18 02:42:53;;;;;;;;;27.25;26.25;;;;;;;;5089317;27;46231;-74
2021/10/18 02:45:18;;;;;;;;;33.00;30.75;;;;;;;;5075346;27;45422;-74
2021/10/18 02:47:43;;;;;;;;;34.50;29.75;;;;;;;;5077783;27;45465;-74
2021/10/18 02:50:09;;;;;;;;;28.75;24.75;;;;;;;;5075606;27;45448;-74
2021/10/18 02:52:34;;;;;;;;;31.50;27.75;;;;;;;;5076871;27;46109;-74
2021/10/18 02:54:59;;;;;;;;;29.50;28.00;;;;;;;;5076137;27;45461;-74
2021/10/18 02:57:24;;;;;;;;;28.75;26.25;;;;;;;;5073281;27;45401;-74
2021/10/18 02:59:50;;;;;;;;;33.50;30.25;;;;;;;;5079291;27;45442;-74
2021/10/18 03:02:17;;;;;;;;;29.50;25.25;;;;;;;;5078003;27;45490;-74
2021/10/18 03:04:43;;;;;;;;;28.75;25.75;;;;;;;;5080470;27;45413;-74
2021/10/18 03:07:08;;;;;;;;;26.75;25.00;;;;;;;;5080841;27;45333;-74
2021/10/18 03:09:33;;;;;;;;;27.75;23.25;;;;;;;;5076230;27;45380;-73
2021/10/18 03:11:58;;;;;;;;;27.50;24.50;;;;;;;;5082009;27;45430;-73
2021/10/18 03:14:23;;;;;;;;;26.50;24.25;;;;;;;;5080194;27;45362;-74
2021/10/18 03:16:49;;;;;;;;;28.50;23.50;;;;;;;;5080079;27;45349;-73
2021/10/18 03:19:14;;;;;;;;;28.50;24.25;;;;;;;;5080267;27;45363;-72
2021/10/18 03:21:40;;;;;;;;;26.00;25.00;;;;;;;;5076793;27;47276;-75
2021/10/18 03:24:05;;;;;;;;;26.75;23.75;;;;;;;;5080632;27;45228;-73
2021/10/18 03:26:30;;;;;;;;;30.75;27.00;;;;;;;;5078756;27;45710;-74
2021/10/18 03:28:56;;;;;;;;;20.50;20.50;;;;;;;;5076629;27;45271;-74
2021/10/18 03:31:21;;;;;;;;;25.25;23.50;;;;;;;;5087652;27;46127;-74
2021/10/18 03:33:47;;;;;;;;;28.75;22.75;;;;;;;;5077579;27;45659;-74
2021/10/18 03:36:12;;;;;;;;;29.50;25.25;;;;;;;;5078628;27;45388;-74
2021/10/18 03:38:37;;;;;;;;;28.00;25.00;;;;;;;;5080919;27;45341;-75
2021/10/18 03:41:03;;;;;;;;;29.75;24.25;;;;;;;;5079271;27;45445;-75
2021/10/18 03:43:28;;;;;;;;;27.50;22.00;;;;;;;;5079518;27;45630;-75
2021/10/18 03:45:53;;;;;;;;;33.00;31.75;;;;;;;;5060144;27;45473;-74
2021/10/18 03:48:19;;;;;;;;;31.50;25.50;;;;;;;;5076700;27;45375;-74
2021/10/18 03:50:44;;;;;;;;;27.25;24.00;;;;;;;;5081574;27;45445;-75
2021/10/18 03:53:09;;;;;;;;;29.50;25.50;;;;;;;;5079504;27;45345;-74
2021/10/18 03:55:35;;;;;;;;;31.25;26.25;;;;;;;;5079077;27;45406;-74
2021/10/18 03:58:00;;;;;;;;;28.00;23.50;;;;;;;;5078749;27;45569;-74
2021/10/18 04:00:25;;;;;;;;;26.25;25.25;;;;;;;;5075454;27;46200;-75
2021/10/18 04:02:51;;;;;;;;;22.25;20.50;;;;;;;;5081473;27;45298;-75
2021/10/18 04:05:16;;;;;;;;;28.00;25.00;;;;;;;;5077930;27;45383;-75
2021/10/18 04:07:45;;;;;;;;;28.25;25.00;;;;;;;;5077644;27;45335;-75
2021/10/18 04:10:11;;;;;;;;;33.50;28.50;;;;;;;;5078561;27;46401;-74
2021/10/18 04:12:36;;;;;;;;;25.00;23.25;;;;;;;;5074863;27;45545;-74
2021/10/18 04:15:01;;;;;;;;;25.50;23.00;;;;;;;;5097297;27;45232;-73
2021/10/18 04:17:26;;;;;;;;;27.75;24.25;;;;;;;;5078997;27;45832;-75
2021/10/18 04:19:51;;;;;;;;;31.50;23.25;;;;;;;;5078734;27;47182;-75
2021/10/18 04:22:17;;;;;;;;;29.25;27.00;;;;;;;;5078479;27;45319;-74
2021/10/18 04:24:42;;;;;;;;;28.50;25.75;;;;;;;;5075916;27;45427;-75
2021/10/18 04:27:07;;;;;;;;;30.50;27.25;;;;;;;;5079208;27;45501;-76
2021/10/18 04:29:33;;;;;;;;;31.25;27.25;;;;;;;;5078877;27;46129;-73
2021/10/18 04:31:58;;;;;;;;;32.75;29.25;;;;;;;;5078381;27;45344;-74
2021/10/18 04:34:26;;;;;;;;;23.25;23.00;;;;;;;;5078535;27;45524;-74
2021/10/18 04:36:52;;;;;;;;;30.25;28.00;;;;;;;;5076647;27;45288;-74
2021/10/18 04:39:18;;;;;;;;;28.00;24.25;;;;;;;;5075097;27;46009;-75
2021/10/18 04:41:43;;;;;;;;;33.75;30.25;;;;;;;;5079910;27;45848;-74
2021/10/18 04:44:08;;;;;;;;;25.25;23.25;;;;;;;;5076754;27;45485;-74
2021/10/18 04:46:33;;;;;;;;;28.75;25.50;;;;;;;;5076253;27;45416;-75
2021/10/18 04:48:58;;;;;;;;;28.25;25.50;;;;;;;;5076949;27;46452;-75
2021/10/18 04:51:24;;;;;;;;;27.25;24.75;;;;;;;;5073673;27;45371;-75
2021/10/18 04:53:49;;;;;;;;;26.75;22.25;;;;;;;;5079625;27;45145;-75
2021/10/18 04:56:14;;;;;;;;;28.25;23.75;;;;;;;;5078071;27;45444;-75
2021/10/18 04:58:39;;;;;;;;;31.75;30.50;;;;;;;;5077771;27;46113;-74
2021/10/18 05:01:04;;;;;;;;;26.50;25.25;;;;;;;;5077989;27;45395;-75
2021/10/18 05:03:30;;;;;;;;;28.25;24.75;;;;;;;;5073498;28;45487;-76
2021/10/18 05:05:55;;;;;;;;;26.75;22.50;;;;;;;;5080250;27;45569;-75
2021/10/18 05:08:20;;;;;;;;;28.00;27.75;;;;;;;;5077431;27;46462;-74
2021/10/18 05:10:46;;;;;;;;;21.50;21.25;;;;;;;;5059632;28;45464;-75
2021/10/18 05:13:12;;;;;;;;;23.00;23.00;;;;;;;;5077735;27;45312;-77
2021/10/18 05:15:38;;;;;;;;;23.00;22.25;;;;;;;;5074287;27;45355;-75
2021/10/18 05:18:04;;;;;;;;;33.25;31.50;;;;;;;;5078837;27;47214;-76
2021/10/18 05:20:29;;;;;;;;;40.25;34.75;;;;;;;;5078971;27;45312;-76
2021/10/18 05:22:55;;;;;;;;;34.75;32.50;;;;;;;;5079297;27;45395;-76
2021/10/18 05:25:20;;;;;;;;;29.25;29.25;;;;;;;;5075229;27;45265;-77
2021/10/18 05:27:45;;;;;;;;;32.00;27.50;;;;;;;;5073951;27;46327;-77
2021/10/18 05:30:11;;;;;;;;;30.50;27.50;;;;;;;;5076230;27;45370;-77
2021/10/18 05:32:36;;;;;;;;;36.00;33.00;;;;;;;;5077596;27;45453;-76
2021/10/18 05:35:02;;;;;;;;;20.00;19.00;;;;;;;;5076561;27;45351;-74
2021/10/18 05:37:28;;;;;;;;;32.00;24.00;;;;;;;;5075770;27;46317;-77
2021/10/18 05:39:53;;;;;;;;;33.50;32.00;;;;;;;;5074682;27;47839;-76
2021/10/18 05:42:18;;;;;;;;;55.00;43.50;;;;;;;;5055822;28;45385;-74
2021/10/18 05:44:44;;;;;;;;;52.75;41.75;;;;;;;;5079123;27;45274;-75
2021/10/18 05:47:09;;;;;;;;;47.50;38.25;;;;;;;;5076250;27;46106;-76
2021/10/18 05:49:35;;;;;;;;;50.25;39.00;;;;;;;;5076082;27;45264;-76
2021/10/18 05:52:01;;;;;;;;;40.75;33.75;;;;;;;;5075981;27;45366;-76
2021/10/18 05:54:27;;;;;;;;;43.75;36.50;;;;;;;;5072468;27;45299;-76
2021/10/18 05:56:52;;;;;;;;;47.75;36.00;;;;;;;;5078380;27;46292;-76
2021/10/18 05:59:17;;;;;;;;;39.25;34.50;;;;;;;;5058625;28;45665;-74
2021/10/18 06:01:43;;;;;;;;;36.25;33.25;;;;;;;;5075417;27;45489;-75
2021/10/18 06:04:08;;;;;;;;;43.75;35.00;;;;;;;;5074110;27;45561;-76
2021/10/18 06:06:35;;;;;;;;;65.00;46.50;;;;;;;;5071096;27;46063;-76
2021/10/18 06:09:00;;;;;;;;;33.25;29.50;;;;;;;;5077691;27;45335;-76
2021/10/18 06:11:26;;;;;;;;;33.75;32.50;;;;;;;;5076186;27;45434;-77
2021/10/18 06:13:51;;;;;;;;;31.75;29.25;;;;;;;;5076107;27;45478;-75
2021/10/18 06:16:16;;;;;;;;;29.00;29.00;;;;;;;;5076468;27;46111;-77
2021/10/18 06:18:41;;;;;;;;;29.75;22.25;;;;;;;;5071968;27;45389;-76
2021/10/18 06:21:07;;;;;;;;;31.00;27.50;;;;;;;;5076077;27;45480;-75
2021/10/18 06:23:32;;;;;;;;;32.00;27.75;;;;;;;;5076461;27;45562;-77
2021/10/18 06:25:57;;;;;;;;;29.25;26.00;;;;;;;;5075193;27;45418;-77
2021/10/18 06:28:23;;;;;;;;;28.75;26.75;;;;;;;;5075592;27;45362;-76
2021/10/18 06:30:48;;;;;;;;;31.50;29.25;;;;;;;;5073720;27;45397;-77
2021/10/18 06:33:13;;;;;;;;;25.75;23.00;;;;;;;;5074269;27;45351;-77
2021/10/18 06:35:38;;;;;;;;;32.00;26.75;;;;;;;;5076733;27;46079;-76
2021/10/18 06:38:11;;;;;;;;;31.25;23.00;;;;;;;;5079109;27;45576;-75
2021/10/18 06:40:36;;;;;;;;;31.25;28.75;;;;;;;;5077721;27;45316;-76
2021/10/18 06:43:01;;;;;;;;;25.50;24.50;;;;;;;;5076702;27;45482;-75
2021/10/18 06:45:27;;;;;;;;;33.50;30.00;;;;;;;;5074893;27;46377;-75
2021/10/18 06:47:52;;;;;;;;;30.25;27.00;;;;;;;;5080396;27;45402;-76
2021/10/18 06:50:17;;;;;;;;;36.25;29.50;;;;;;;;5079309;27;45488;-77
2021/10/18 06:52:43;;;;;;;;;27.00;25.75;;;;;;;;5080617;27;45405;-78
2021/10/18 06:55:10;;;;;;;;;36.50;31.50;;;;;;;;5078827;27;47445;-78
2021/10/18 06:57:35;;;;;;;;;33.00;27.50;;;;;;;;5075361;27;45869;-74
2021/10/18 07:00:01;;;;;;;;;39.25;31.75;;;;;;;;5080918;27;45426;-76
2021/10/18 07:02:26;;;;;;;;;30.75;26.00;;;;;;;;5077352;27;45359;-75
2021/10/18 07:04:52;;;;;;;;;29.50;23.75;;;;;;;;5078085;27;47156;-75
2021/10/18 07:07:17;;;;;;;;;27.00;25.25;;;;;;;;5060263;27;45541;-75
2021/10/18 07:09:43;;;;;;;;;34.00;29.00;;;;;;;;5075664;27;45336;-75
2021/10/18 07:12:08;;;;;;;;;34.00;28.00;;;;;;;;5078177;27;45582;-75
2021/10/18 07:14:33;;;;;;;;;30.50;28.00;;;;;;;;5078759;27;47296;-75
2021/10/18 07:16:59;;;;;;;;;30.25;25.25;;;;;;;;5077828;27;45378;-75
2021/10/18 07:19:24;;;;;;;;;26.25;23.75;;;;;;;;5076958;27;45415;-76
2021/10/18 07:21:49;;;;;;;;;21.00;20.75;;;;;;;;5074644;27;45493;-75
2021/10/18 07:24:17;;;;;;;;;22.75;20.50;;;;;;;;5077019;27;46095;-76
2021/10/18 07:26:42;;;;;;;;;28.50;26.50;;;;;;;;5080461;27;45458;-75
2021/10/18 07:29:07;;;;;;;;;30.25;25.25;;;;;;;;5078641;27;45490;-75
2021/10/18 07:31:32;;;;;;;;;25.25;22.25;;;;;;;;5077837;27;45334;-75
2021/10/18 07:34:02;;;;;;;;;27.50;23.75;;;;;;;;5073488;27;47102;-75
2021/10/18 07:36:28;;;;;;;;;27.25;23.75;;;;;;;;5090450;27;45185;-75
2021/10/18 07:38:55;;;;;;;;;27.00;24.50;;;;;;;;5061501;27;45629;-74
2021/10/18 07:41:20;;;;;;;;;29.00;24.00;;;;;;;;5077694;27;45426;-74
2021/10/18 07:43:45;;;;;;;;;25.00;22.50;;;;;;;;5077755;27;46007;-72
2021/10/18 07:46:11;;;;;;;;;35.50;28.50;;;;;;;;5077232;27;45361;-75
2021/10/18 07:48:36;;;;;;;;;27.75;25.75;;;;;;;;5073217;27;45407;-75
2021/10/18 07:51:02;;;;;;;;;31.00;26.00;;;;;;;;5079135;27;45450;-75
2021/10/18 07:53:27;;;;;;;;;25.25;23.50;;;;;;;;5077252;27;46954;-75
2021/10/18 07:55:52;;;;;;;;;28.00;24.75;;;;;;;;5077952;27;45394;-75
2021/10/18 07:58:17;;;;;;;;;25.50;25.50;;;;;;;;5078899;27;45387;-75
2021/10/18 08:00:42;;;;;;;;;23.00;21.50;;;;;;;;5073168;27;49232;-73
2021/10/18 08:03:08;;;;;;;;;27.75;27.25;;;;;;;;5077913;27;46156;-73
2021/10/18 08:05:33;;;;;;;;;22.75;22.75;;;;;;;;5078658;27;45383;-74
2021/10/18 08:07:58;;;;;;;;;22.75;22.75;;;;;;;;5077844;27;45365;-73
2021/10/18 08:10:23;;;;;;;;;23.00;22.00;;;;;;;;5077800;27;45529;-75
2021/10/18 08:12:52;;;;;;;;;19.00;18.25;;;;;;;;5074733;27;47276;-75
2021/10/18 08:15:17;;;;;;;;;23.25;22.00;;;;;;;;5074861;27;45344;-73
2021/10/18 08:17:43;;;;;;;;;32.75;28.00;;;;;;;;5077662;27;45403;-73
2021/10/18 08:20:08;;;;;;;;;22.75;22.25;;;;;;;;5077981;27;45378;-74
2021/10/18 08:22:34;;;;;;;;;26.75;25.25;;;;;;;;5077792;27;47141;-73
2021/10/18 08:24:59;;;;;;;;;36.75;31.00;;;;;;;;5057721;27;45362;-74
2021/10/18 08:27:24;;;;;;;;;27.75;24.25;;;;;;;;5074286;27;45375;-73
2021/10/18 08:29:49;;;;;;;;;33.00;29.25;;;;;;;;5080060;27;45478;-73
2021/10/18 08:32:14;;;;;;;;;29.75;29.50;;;;;;;;5058587;28;46943;-75
2021/10/18 08:34:40;;;;;;;;;30.00;25.50;;;;;;;;5076888;27;45372;-74
2021/10/18 08:37:05;;;;;;;;;27.00;23.00;;;;;;;;5077981;27;45378;-75
2021/10/18 08:42:17;;;;;;;;;31.25;28.00;;;;;;;;5087400;27;45792;-74
2021/10/18 08:44:42;;;;;;;;;42.75;39.25;;;;;;;;5078913;27;45248;-76
2021/10/18 08:47:08;;;;;;;;;30.75;26.25;;;;;;;;5077119;27;45419;-75
2021/10/18 08:49:33;;;;;;;;;33.25;24.75;;;;;;;;5076437;27;45471;-74
2021/10/18 08:51:58;;;;;;;;;31.25;29.25;;;;;;;;5076057;27;46256;-75
2021/10/18 08:54:23;;;;;;;;;29.00;28.00;;;;;;;;5073428;27;45347;-74
2021/10/18 08:56:49;;;;;;;;;32.00;27.00;;;;;;;;5079259;27;45716;-75
2021/10/18 08:59:16;;;;;;;;;28.00;25.00;;;;;;;;5076934;27;45503;-75
2021/10/18 09:01:43;;;;;;;;;32.25;28.50;;;;;;;;5077525;27;47151;-73
2021/10/18 09:04:11;;;;;;;;;30.75;28.50;;;;;;;;5077340;27;45419;-76
2021/10/18 09:06:42;;;;;;;;;29.75;28.25;;;;;;;;5073191;27;45330;-76
2021/10/18 09:09:08;;;;;;;;;33.50;26.00;;;;;;;;5059070;28;45519;-74
2021/10/18 09:11:33;;;;;;;;;32.00;29.00;;;;;;;;5077642;27;46101;-74
2021/10/18 09:13:59;;;;;;;;;25.75;25.75;;;;;;;;5076747;27;45384;-74
2021/10/18 09:16:26;;;;;;;;;29.00;25.75;;;;;;;;5075415;27;45543;-75
2021/10/18 09:19:10;;;;;;;;;26.25;20.25;;;;;;;;5073282;27;45476;-74
2021/10/18 09:21:38;;;;;;;;;27.50;27.50;;;;;;;;5056884;27;46245;-75
2021/10/18 09:24:04;;;;;;;;;28.00;25.25;;;;;;;;5059380;27;45269;-75
2021/10/18 09:26:33;;;;;;;;;29.75;26.50;;;;;;;;5075885;27;45474;-75
2021/10/18 09:29:15;;;;;;;;;26.25;26.00;;;;;;;;5074610;27;45552;-75
2021/10/18 09:31:41;;;;;;;;;29.50;27.00;;;;;;;;5075500;27;45441;-74
2021/10/18 09:34:11;;;;;;;;;32.00;28.25;;;;;;;;5077137;27;45378;-74
2021/10/18 09:36:37;;;;;;;;;31.50;25.50;;;;;;;;5072533;27;45502;-75
2021/10/18 09:39:13;;;;;;;;;35.25;30.50;;;;;;;;5078800;27;45456;-73
2021/10/18 09:42:05;;;;;;;;;28.50;27.00;;;;;;;;5077927;27;46724;-75
2021/10/18 10:51:54;;;;;;;;;36.50;29.50;;;;;;;;5062460;27;45513;-75
2021/10/18 10:54:38;;;;;;;;;32.25;30.00;;;;;;;;5078050;27;45542;-73
2021/10/18 10:57:10;;;;;;;;;35.25;31.00;;;;;;;;5092513;27;45413;-76
2021/10/18 10:59:48;;;;;;;;;28.00;27.75;;;;;;;;5082819;27;46868;-73
2021/10/18 11:02:24;;;;;;;;;30.25;29.00;;;;;;;;5081689;27;45568;-76
2021/10/18 11:04:50;;;;;;;;;31.00;28.25;;;;;;;;5081595;27;45545;-76
2021/10/18 11:07:19;;;;;;;;;25.75;24.25;;;;;;;;5081832;27;45458;-76
2021/10/18 11:09:45;;;;;;;;;30.00;29.00;;;;;;;;5078657;27;45659;-75
2021/10/18 11:12:18;;;;;;;;;28.25;25.00;;;;;;;;5081379;27;45370;-74
2021/10/18 11:14:55;;;;;;;;;31.25;29.75;;;;;;;;5081013;27;45427;-76
2021/10/18 11:17:20;;;;;;;;;34.50;29.00;;;;;;;;5079229;27;45444;-75
2021/10/18 11:19:56;;;;;;;;;30.50;28.50;;;;;;;;5087172;27;46111;-75
2021/10/18 11:22:29;;;;;;;;;30.25;26.00;;;;;;;;5079726;27;45326;-75
2021/10/18 11:24:55;;;;;;;;;30.00;28.50;;;;;;;;5076000;27;45453;-76
2021/10/18 11:27:24;;;;;;;;;28.50;25.75;;;;;;;;5075571;27;45382;-76
2021/10/18 11:29:54;;;;;;;;;26.50;24.50;;;;;;;;5079803;27;46398;-76
2021/10/18 11:32:20;;;;;;;;;29.50;28.25;;;;;;;;5078194;27;45483;-75
2021/10/18 11:34:45;;;;;;;;;28.75;26.25;;;;;;;;5078178;27;45387;-74
2021/10/18 11:37:10;;;;;;;;;26.00;21.50;;;;;;;;5078122;27;45466;-76
2021/10/18 11:39:36;;;;;;;;;41.00;29.50;;;;;;;;5074675;27;47178;-75
2021/10/18 11:42:03;;;;;;;;;14.75;14.75;;;;;;;;5080493;27;45403;-74
2021/10/18 11:44:48;;;;;;;;;14.00;13.75;;;;;;;;5076739;27;45474;-76
2021/10/18 11:47:21;;;;;;;;;25.25;22.50;;;;;;;;5078159;27;45411;-76
2021/10/18 11:50:04;;;;;;;;;23.00;21.75;;;;;;;;5078028;27;46256;-75
2021/10/18 11:52:31;;;;;;;;;22.00;21.00;;;;;;;;5076144;27;45451;-75
2021/10/18 11:54:56;;;;;;;;;20.75;19.00;;;;;;;;5074799;27;45582;-75
2021/10/18 11:57:21;;;;;;;;;22.75;21.50;;;;;;;;5075569;27;45368;-75
2021/10/18 11:59:47;;;;;;;;;21.00;19.25;;;;;;;;5062372;27;48429;-75
2021/10/18 12:02:20;;;;;;;;;21.75;19.25;;;;;;;;5078147;27;45441;-75
2021/10/18 12:04:56;;;;;;;;;14.50;14.25;;;;;;;;5078404;27;45372;-74
2021/10/18 12:07:39;;;;;;;;;22.25;21.25;;;;;;;;5078099;27;45451;-76
2021/10/18 12:10:14;;;;;;;;;21.75;18.25;;;;;;;;5077871;27;45442;-74
2021/10/18 12:12:39;;;;;;;;;20.25;19.50;;;;;;;;5059188;27;45679;-75
2021/10/18 12:15:05;;;;;;;;;23.25;18.50;;;;;;;;5079502;27;45371;-74
2021/10/18 12:17:32;;;;;;;;;22.75;19.75;;;;;;;;5078886;27;45510;-75
2021/10/18 12:19:57;;;;;;;;;17.25;16.00;;;;;;;;5077651;27;47031;-75
2021/10/18 12:22:23;;;;;;;;;20.00;18.25;;;;;;;;5077984;27;45339;-75
2021/10/18 12:25:01;;;;;;;;;18.25;18.25;;;;;;;;5075936;27;45397;-76
2021/10/18 12:27:27;;;;;;;;;19.75;19.50;;;;;;;;5074794;27;45400;-74
2021/10/18 12:29:52;;;;;;;;;19.50;17.00;;;;;;;;5079853;27;45405;-76
2021/10/18 12:32:18;;;;;;;;;18.75;17.50;;;;;;;;5076486;27;45541;-75
2021/10/18 12:34:43;;;;;;;;;18.75;18.25;;;;;;;;5075901;27;45655;-75
2021/10/18 12:37:13;;;;;;;;;25.50;23.25;;;;;;;;5055038;27;45604;-75
2021/10/18 12:39:53;;;;;;;;;21.75;19.75;;;;;;;;5088645;27;45355;-74
2021/10/18 12:42:25;;;;;;;;;20.25;18.25;;;;;;;;5075310;27;45451;-75
2021/10/18 12:45:02;;;;;;;;;19.75;18.75;;;;;;;;5078023;27;45251;-77
2021/10/18 12:47:29;;;;;;;;;18.50;18.00;;;;;;;;5076879;27;45340;-74
2021/10/18 12:50:15;;;;;;;;;16.75;14.50;;;;;;;;5076650;27;46281;-76
2021/10/18 12:52:41;;;;;;;;;19.50;17.75;;;;;;;;5077356;27;47827;-74
2021/10/18 12:55:10;;;;;;;;;24.00;20.00;;;;;;;;5077763;27;45491;-75
2021/10/18 12:57:35;;;;;;;;;16.50;16.50;;;;;;;;5072928;27;45421;-75
2021/10/18 13:00:11;;;;;;;;;26.00;24.50;;;;;;;;5078323;27;46481;-75
2021/10/18 13:02:38;;;;;;;;;23.75;21.50;;;;;;;;5077769;27;45465;-75
2021/10/18 13:05:11;;;;;;;;;25.00;23.00;;;;;;;;5076214;27;45523;-75
2021/10/18 13:07:37;;;;;;;;;22.25;20.50;;;;;;;;5077023;27;45443;-75
2021/10/18 13:10:04;;;;;;;;;23.75;20.50;;;;;;;;5075050;27;46321;-75
2021/10/18 13:12:29;;;;;;;;;17.50;16.75;;;;;;;;5072262;27;45460;-75
2021/10/18 13:14:55;;;;;;;;;24.25;23.00;;;;;;;;5078133;27;45718;-75
2021/10/18 13:17:24;;;;;;;;;24.00;21.25;;;;;;;;5076816;27;45268;-76
2021/10/18 13:19:50;;;;;;;;;20.50;19.25;;;;;;;;5076656;27;46016;-75
2021/10/18 13:22:15;;;;;;;;;20.25;16.50;;;;;;;;5077175;27;45345;-75
2021/10/18 13:24:41;;;;;;;;;13.75;13.75;;;;;;;;5073484;27;45466;-77
2021/10/18 13:27:06;;;;;;;;;17.00;16.25;;;;;;;;5078080;27;45465;-76
2021/10/18 13:29:31;;;;;;;;;21.00;18.50;;;;;;;;5078448;27;45533;-75
2021/10/18 13:31:56;;;;;;;;;23.50;17.00;;;;;;;;5077895;27;45474;-75
2021/10/18 13:34:22;;;;;;;;;15.75;14.25;;;;;;;;5077700;27;45595;-75
2021/10/18 13:36:47;;;;;;;;;18.75;17.50;;;;;;;;5074752;27;45603;-76
2021/10/18 13:39:12;;;;;;;;;13.00;9.75;;;;;;;;5076836;27;45506;-75
2021/10/18 13:41:38;;;;;;;;;16.50;13.25;;;;;;;;5077905;27;45400;-75
2021/10/18 13:44:06;;;;;;;;;16.50;14.75;;;;;;;;5075326;27;45494;-75
2021/10/18 13:46:31;;;;;;;;;12.75;11.75;;;;;;;;5074700;27;45543;-76
2021/10/18 13:48:57;;;;;;;;;20.50;20.50;;;;;;;;5072310;27;46832;-76
2021/10/18 13:51:22;;;;;;;;;16.25;14.75;;;;;;;;5073099;27;45302;-76
2021/10/18 13:53:50;;;;;;;;;15.25;15.25;;;;;;;;5076614;27;45723;-75
2021/10/18 13:56:15;;;;;;;;;12.50;12.00;;;;;;;;5076398;27;45451;-74
2021/10/18 13:58:41;;;;;;;;;15.25;14.75;;;;;;;;5075986;27;45992;-74
2021/10/18 14:01:06;;;;;;;;;12.25;12.00;;;;;;;;5076198;27;45443;-75
2021/10/18 14:03:32;;;;;;;;;18.00;13.25;;;;;;;;5072053;27;45375;-75
2021/10/18 14:05:58;;;;;;;;;16.00;15.00;;;;;;;;5078826;27;45328;-75
2021/10/18 14:08:23;;;;;;;;;11.00;9.00;;;;;;;;5075895;27;46155;-75
2021/10/18 14:10:49;;;;;;;;;16.25;14.00;;;;;;;;5075044;27;45430;-76
2021/10/18 14:13:15;;;;;;;;;9.50;8.50;;;;;;;;5076147;27;45516;-74
2021/10/18 14:15:41;;;;;;;;;11.25;11.25;;;;;;;;5072612;27;45444;-75
2021/10/18 14:18:06;;;;;;;;;19.00;16.75;;;;;;;;5077567;27;46454;-76
2021/10/18 14:20:31;;;;;;;;;14.25;14.25;;;;;;;;5075709;27;45374;-74
2021/10/18 14:22:56;;;;;;;;;14.00;12.75;;;;;;;;5076582;27;45364;-74
2021/10/18 14:25:22;;;;;;;;;15.00;13.25;;;;;;;;5075409;27;45473;-74
2021/10/18 14:27:47;;;;;;;;;12.25;11.00;;;;;;;;5055646;27;47704;-75
2021/10/18 14:30:13;;;;;;;;;12.00;10.75;;;;;;;;5075479;27;45289;-75
2021/10/18 14:32:38;;;;;;;;;9.00;8.00;;;;;;;;5075245;27;45400;-74
2021/10/18 14:35:03;;;;;;;;;10.25;8.50;;;;;;;;5058068;28;45510;-75
2021/10/18 14:37:29;;;;;;;;;8.00;6.75;;;;;;;;5075808;27;46063;-74
2021/10/18 14:39:54;;;;;;;;;8.75;7.00;;;;;;;;5074145;27;45245;-74
2021/10/18 14:42:19;;;;;;;;;11.75;11.75;;;;;;;;5073958;27;45616;-75
2021/10/18 14:44:45;;;;;;;;;9.00;9.00;;;;;;;;5076271;27;45301;-75
2021/10/18 14:47:11;;;;;;;;;10.75;10.00;;;;;;;;5075319;27;46044;-76
2021/10/18 14:49:36;;;;;;;;;12.00;12.00;;;;;;;;5076017;27;45334;-75
2021/10/18 14:52:01;;;;;;;;;13.75;12.00;;;;;;;;5075425;27;45455;-74
2021/10/18 14:54:26;;;;;;;;;9.00;9.00;;;;;;;;5072484;27;45403;-76
2021/10/18 14:56:51;;;;;;;;;10.00;10.00;;;;;;;;5077180;27;47106;-73
2021/10/18 14:59:17;;;;;;;;;12.00;8.50;;;;;;;;5079645;27;45343;-75
2021/10/18 15:01:42;;;;;;;;;11.25;10.25;;;;;;;;5079203;27;45341;-76
2021/10/18 15:04:07;;;;;;;;;9.00;9.00;;;;;;;;5079632;27;45581;-75
2021/10/18 15:06:33;;;;;;;;;12.50;9.00;;;;;;;;5073384;28;47226;-76
2021/10/18 15:09:00;;;;;;;;;12.00;8.50;;;;;;;;5080654;27;45510;-75
2021/10/18 15:11:26;;;;;;;;;8.00;5.75;;;;;;;;5077007;27;45470;-75
2021/10/18 15:13:51;;;;;;;;;9.00;8.25;;;;;;;;5078932;27;47545;-76
2021/10/18 15:16:16;;;;;;;;;7.50;7.50;;;;;;;;5078393;27;45524;-76
2021/10/18 15:18:41;;;;;;;;;13.25;9.75;;;;;;;;5074375;27;45442;-75
2021/10/18 15:21:07;;;;;;;;;14.75;11.50;;;;;;;;5082898;27;45463;-76
2021/10/18 15:23:32;;;;;;;;;8.75;8.75;;;;;;;;5080675;27;45388;-77